Time;durP1;ratioP1;P1;durP2;ratioP2;P2;SDS_P1;SDS_P2;PMS_P1;PMS_P2;Temp;Humidity;BMP_temperature;BMP_pressure;BME280_temperature;BME280_humidity;BME280_pressure;Samples;Min_cycle;Max_cycle;Signal;HPM_P1;HPM_P2
2022/08/14 00:01:57;;;;;;;9.88;6.22;;;23.00;80.30;;;;;;5093102;28;20582;-65
2022/08/14 00:04:23;;;;;;;9.48;6.10;;;23.00;80.40;;;;;;5093161;28;20524;-65
2022/08/14 00:06:49;;;;;;;8.07;6.10;;;23.00;80.60;;;;;;5092972;28;20035;-65
2022/08/14 00:09:14;;;;;;;9.43;5.43;;;22.90;81.00;;;;;;5092645;28;20040;-65
2022/08/14 00:11:40;;;;;;;9.48;6.57;;;22.90;81.20;;;;;;5093121;28;20047;-65
2022/08/14 00:14:05;;;;;;;8.98;6.57;;;22.80;82.00;;;;;;5093102;28;20036;-65
2022/08/14 00:16:31;;;;;;;8.68;6.30;;;22.80;82.50;;;;;;5092910;28;20458;-65
2022/08/14 00:18:57;;;;;;;6.97;6.13;;;22.80;82.90;;;;;;5092932;28;20040;-65
2022/08/14 00:21:22;;;;;;;10.13;6.60;;;22.80;83.10;;;;;;5092768;28;20051;-65
2022/08/14 00:23:50;;;;;;;7.70;6.00;;;22.70;83.50;;;;;;5092819;28;20044;-65
2022/08/14 00:26:16;;;;;;;7.05;6.15;;;22.70;84.00;;;;;;5092925;28;20048;-66
2022/08/14 00:28:41;;;;;;;9.68;6.43;;;22.70;84.60;;;;;;5091416;28;20379;-65
2022/08/14 00:31:07;;;;;;;7.55;6.57;;;22.60;85.30;;;;;;5092303;28;20102;-65
2022/08/14 00:33:33;;;;;;;8.00;5.82;;;22.60;85.80;;;;;;5092782;28;20067;-65
2022/08/14 00:35:58;;;;;;;8.48;6.55;;;22.60;86.20;;;;;;5092714;28;20043;-65
2022/08/14 00:38:24;;;;;;;8.75;6.50;;;22.50;86.80;;;;;;5093527;28;20044;-65
2022/08/14 00:40:50;;;;;;;7.28;5.95;;;22.50;87.10;;;;;;5093052;28;20036;-65
2022/08/14 00:43:16;;;;;;;10.02;6.82;;;22.50;87.80;;;;;;5092070;28;20035;-65
2022/08/14 00:45:42;;;;;;;9.10;6.40;;;22.40;88.00;;;;;;5092560;28;20066;-65
2022/08/14 00:48:09;;;;;;;9.65;6.43;;;22.50;88.40;;;;;;5092242;28;20549;-65
2022/08/14 00:50:35;;;;;;;6.95;6.35;;;22.40;88.80;;;;;;5092092;28;20488;-65
2022/08/14 00:53:01;;;;;;;10.13;6.60;;;22.40;89.10;;;;;;5092282;28;20089;-65
2022/08/14 00:55:28;;;;;;;7.50;6.78;;;22.40;89.50;;;;;;5092387;28;20031;-65
2022/08/14 01:00:54;;;;;;;12.63;7.47;;;22.30;90.00;;;;;;5049215;28;20175;-65
2022/08/14 01:03:20;;;;;;;10.10;7.78;;;22.40;90.30;;;;;;5083250;28;20087;-66
2022/08/14 01:05:48;;;;;;;9.68;6.60;;;22.40;90.20;;;;;;5092278;28;20115;-65
2022/08/14 01:08:23;;;;;;;9.95;7.50;;;22.30;90.40;;;;;;5092155;28;20082;-66
2022/08/14 01:10:49;;;;;;;7.38;6.45;;;22.30;90.60;;;;;;5091613;28;20397;-65
2022/08/14 01:13:21;;;;;;;8.13;7.32;;;22.30;90.80;;;;;;5092058;28;20046;-65
2022/08/14 01:15:51;;;;;;;7.85;7.05;;;22.20;91.00;;;;;;5091893;28;20028;-65
2022/08/14 01:21:02;;;;;;;8.65;7.72;;;22.10;91.40;;;;;;5091718;28;20102;-65
2022/08/14 01:23:29;;;;;;;8.57;7.68;;;22.10;91.90;;;;;;5091911;28;20040;-65
2022/08/14 01:25:55;;;;;;;9.25;6.97;;;22.10;92.10;;;;;;5090602;28;20387;-65
2022/08/14 01:28:21;;;;;;;9.15;8.02;;;22.10;92.30;;;;;;5091621;28;20044;-65
2022/08/14 01:30:48;;;;;;;11.82;7.70;;;22.00;92.30;;;;;;5090022;28;20115;-65
2022/08/14 01:33:15;;;;;;;8.48;7.43;;;22.00;92.60;;;;;;5091907;28;20044;-65
2022/08/14 01:35:45;;;;;;;9.07;8.18;;;22.00;92.70;;;;;;5091865;28;20036;-65
2022/08/14 01:38:13;;;;;;;10.65;7.97;;;22.00;92.90;;;;;;5091749;28;20048;-65
2022/08/14 01:40:40;;;;;;;9.57;7.35;;;22.00;93.00;;;;;;5091322;28;20078;-64
2022/08/14 01:43:14;;;;;;;9.85;7.72;;;21.90;93.10;;;;;;5056983;28;20091;-65
2022/08/14 01:45:41;;;;;;;10.40;7.82;;;22.00;93.10;;;;;;5091832;28;20044;-66
2022/08/14 01:48:08;;;;;;;8.70;7.78;;;22.00;93.20;;;;;;5091615;28;20070;-65
2022/08/14 01:50:33;;;;;;;8.68;7.82;;;22.00;93.20;;;;;;5091363;28;20050;-65
2022/08/14 01:52:59;;;;;;;12.32;7.90;;;22.00;93.30;;;;;;5091483;28;20032;-65
2022/08/14 01:55:30;;;;;;;11.75;8.48;;;22.00;93.20;;;;;;5094963;28;20401;-65
2022/08/14 01:57:56;;;;;;;12.35;8.48;;;22.00;93.30;;;;;;5095911;28;20493;-65
2022/08/14 02:00:23;;;;;;;8.70;7.80;;;22.00;93.50;;;;;;5095253;28;20043;-65
2022/08/14 02:02:48;;;;;;;8.70;7.80;;;22.00;93.50;;;;;;5095579;28;20040;-65
2022/08/14 02:05:14;;;;;;;11.15;8.27;;;22.00;93.60;;;;;;5095536;28;20032;-65
2022/08/14 02:07:42;;;;;;;9.90;8.18;;;21.90;93.70;;;;;;5095329;28;20044;-65
2022/08/14 02:10:12;;;;;;;9.10;8.20;;;21.90;93.80;;;;;;5095047;28;20040;-65
2022/08/14 02:12:37;;;;;;;11.15;9.40;;;21.80;94.00;;;;;;5095149;28;20036;-65
2022/08/14 02:15:04;;;;;;;10.13;8.43;;;21.80;94.20;;;;;;5095240;28;20074;-65
2022/08/14 02:17:32;;;;;;;9.57;8.50;;;21.70;94.40;;;;;;5095327;28;20052;-65
2022/08/14 02:19:58;;;;;;;10.13;9.07;;;21.70;94.40;;;;;;5094938;28;20055;-65
2022/08/14 02:22:24;;;;;;;9.32;8.43;;;21.70;94.40;;;;;;5094909;28;20398;-65
2022/08/14 02:24:50;;;;;;;14.95;9.23;;;21.70;94.50;;;;;;5095114;28;20541;-65
2022/08/14 02:27:17;;;;;;;10.32;9.07;;;21.60;94.60;;;;;;5095141;28;20150;-65
2022/08/14 02:29:43;;;;;;;11.05;8.88;;;21.60;94.60;;;;;;5094826;28;20040;-65
2022/08/14 02:32:10;;;;;;;13.55;9.93;;;21.60;94.80;;;;;;5094865;28;20043;-65
2022/08/14 02:34:37;;;;;;;12.05;9.98;;;21.60;95.10;;;;;;5094982;28;20036;-65
2022/08/14 02:37:09;;;;;;;10.25;9.13;;;21.50;95.00;;;;;;5094722;28;20512;-65
2022/08/14 02:39:41;;;;;;;12.23;9.13;;;21.50;95.00;;;;;;5094751;28;20085;-65
2022/08/14 02:42:11;;;;;;;11.65;9.27;;;21.50;95.10;;;;;;5093762;28;20119;-65
2022/08/14 02:44:38;;;;;;;12.40;9.27;;;21.50;95.20;;;;;;5094841;28;20055;-65
2022/08/14 02:47:04;;;;;;;10.52;9.45;;;21.50;95.30;;;;;;5094700;28;20036;-65
2022/08/14 02:49:30;;;;;;;14.65;8.95;;;21.40;95.30;;;;;;5094251;28;20044;-65
2022/08/14 02:51:57;;;;;;;12.40;9.80;;;21.40;95.40;;;;;;5094726;28;20028;-65
2022/08/14 02:54:23;;;;;;;12.18;9.02;;;21.40;95.40;;;;;;5094744;28;20032;-65
2022/08/14 02:56:55;;;;;;;11.85;9.25;;;21.40;95.30;;;;;;5094635;28;20055;-65
2022/08/14 02:59:23;;;;;;;10.57;9.50;;;21.40;95.20;;;;;;5094245;28;20032;-65
2022/08/14 03:01:49;;;;;;;10.07;9.07;;;21.40;95.30;;;;;;5094432;28;20158;-65
2022/08/14 03:04:15;;;;;;;10.57;9.52;;;21.40;95.30;;;;;;5093992;28;20040;-65
2022/08/14 03:06:44;;;;;;;11.13;9.02;;;21.40;95.30;;;;;;5094198;28;20111;-65
2022/08/14 03:09:13;;;;;;;10.75;9.55;;;21.40;95.30;;;;;;5094301;28;20047;-65
2022/08/14 03:11:41;;;;;;;10.40;8.48;;;21.40;95.30;;;;;;5094152;28;20383;-65
2022/08/14 03:14:10;;;;;;;10.55;9.43;;;21.30;95.30;;;;;;5094213;28;20096;-65
2022/08/14 03:16:37;;;;;;;9.60;8.70;;;21.30;95.40;;;;;;5094051;28;20046;-65
2022/08/14 03:19:05;;;;;;;11.88;9.38;;;21.30;95.40;;;;;;5094223;28;20051;-65
2022/08/14 03:21:32;;;;;;;14.27;9.80;;;21.30;95.40;;;;;;5093920;28;20105;-65
2022/08/14 03:26:27;;;;;;;10.40;8.25;;;21.30;95.30;;;;;;5093874;28;20497;-65
2022/08/14 03:28:53;;;;;;;9.75;8.75;;;21.30;95.30;;;;;;5093762;28;20051;-65
2022/08/14 03:31:22;;;;;;;9.98;8.98;;;21.30;95.30;;;;;;5115178;22;20036;-69
2022/08/14 03:33:49;;;;;;;10.88;9.07;;;21.30;95.30;;;;;;5053362;28;20048;-66
2022/08/14 03:36:19;;;;;;;9.80;8.80;;;21.30;95.20;;;;;;5053570;28;20083;-66
2022/08/14 03:38:48;;;;;;;10.57;9.23;;;21.30;95.20;;;;;;5053050;28;20049;-67
2022/08/14 03:41:16;;;;;;;9.63;8.68;;;21.30;95.20;;;;;;5052179;28;20090;-67
2022/08/14 03:43:47;;;;;;;11.70;8.73;;;21.30;95.20;;;;;;5033302;28;20041;-67
2022/08/14 03:46:13;;;;;;;13.30;8.77;;;21.30;95.20;;;;;;5033592;28;20114;-67
2022/08/14 03:48:40;;;;;;;11.18;8.88;;;21.30;95.10;;;;;;5033134;28;20442;-67
2022/08/14 03:51:08;;;;;;;11.55;8.70;;;21.40;95.00;;;;;;5033067;28;20042;-67
2022/08/14 03:53:37;;;;;;;16.13;9.57;;;21.30;95.00;;;;;;5033193;28;20045;-66
2022/08/14 03:56:04;;;;;;;12.15;8.93;;;21.40;95.10;;;;;;5015427;28;20079;-67
2022/08/14 03:58:31;;;;;;;15.35;8.95;;;21.30;95.20;;;;;;5015621;28;20065;-67
2022/08/14 04:00:57;;;;;;;10.98;8.95;;;21.30;95.20;;;;;;5032973;28;20117;-67
2022/08/14 04:03:25;;;;;;;9.98;8.95;;;21.30;95.20;;;;;;5033148;28;20315;-67
2022/08/14 04:05:51;;;;;;;10.18;9.18;;;21.30;95.30;;;;;;5032886;28;20037;-67
2022/08/14 04:08:17;;;;;;;12.23;8.95;;;21.40;95.40;;;;;;5032942;28;20041;-67
2022/08/14 04:10:45;;;;;;;14.60;9.15;;;21.30;95.40;;;;;;5032633;28;20071;-67
2022/08/14 04:13:11;;;;;;;12.35;9.35;;;21.30;95.60;;;;;;5032705;28;20041;-67
2022/08/14 04:15:37;;;;;;;11.93;9.45;;;21.30;95.80;;;;;;5032772;28;20490;-67
2022/08/14 04:18:08;;;;;;;13.18;9.25;;;21.20;95.90;;;;;;5032026;28;20044;-67
2022/08/14 04:20:38;;;;;;;10.25;9.25;;;21.20;96.10;;;;;;5032490;28;20041;-67
2022/08/14 04:23:05;;;;;;;12.57;10.10;;;21.20;96.30;;;;;;5015157;28;20124;-67
2022/08/14 04:25:32;;;;;;;12.80;10.02;;;21.20;96.50;;;;;;5032466;28;20567;-67
2022/08/14 04:27:59;;;;;;;10.57;9.57;;;21.10;96.60;;;;;;5032782;28;20037;-67
2022/08/14 04:30:29;;;;;;;12.52;9.55;;;21.10;96.80;;;;;;5032426;28;20088;-67
2022/08/14 04:32:56;;;;;;;13.18;10.60;;;21.10;96.90;;;;;;5032371;28;20078;-67
2022/08/14 04:35:21;;;;;;;12.20;9.45;;;21.00;97.00;;;;;;5032515;28;20053;-67
2022/08/14 04:43:35;;;;;;;11.55;10.35;;;21.00;97.30;;;;;;5032455;28;20084;-67
2022/08/14 04:46:08;;;;;;;12.65;10.05;;;21.00;97.40;;;;;;5032335;28;20038;-67
2022/08/14 04:48:35;;;;;;;13.30;10.35;;;21.00;97.60;;;;;;5031925;28;20041;-67
2022/08/14 04:51:02;;;;;;;13.73;11.10;;;20.90;97.80;;;;;;5014415;28;20057;-66
2022/08/14 04:53:29;;;;;;;14.50;11.35;;;20.90;97.90;;;;;;5031999;28;20521;-66
2022/08/14 04:55:55;;;;;;;12.63;11.32;;;20.90;98.00;;;;;;5014385;28;20073;-67
2022/08/14 04:58:25;;;;;;;13.23;10.82;;;20.90;98.00;;;;;;5032109;28;20072;-67
2022/08/14 05:00:52;;;;;;;12.40;11.10;;;20.90;98.10;;;;;;5013935;28;20046;-66
2022/08/14 05:03:22;;;;;;;11.35;10.18;;;21.00;97.90;;;;;;5031733;28;20045;-67
2022/08/14 05:05:49;;;;;;;13.02;10.45;;;21.10;97.80;;;;;;5032096;28;20038;-67
2022/08/14 05:08:16;;;;;;;14.90;10.88;;;21.20;97.50;;;;;;5014151;28;20053;-67
2022/08/14 05:10:50;;;;;;;13.80;11.23;;;21.30;97.30;;;;;;5031594;28;20120;-66
2022/08/14 05:13:16;;;;;;;12.48;10.82;;;21.30;97.30;;;;;;5014094;28;20143;-67
2022/08/14 05:15:43;;;;;;;14.77;9.93;;;21.50;97.10;;;;;;5031720;28;20057;-67
2022/08/14 05:18:25;;;;;;;14.88;11.77;;;21.60;96.70;;;;;;5031845;28;20094;-67
2022/08/14 05:20:55;;;;;;;13.15;10.70;;;21.70;96.50;;;;;;5031646;28;20056;-67
2022/08/14 05:23:23;;;;;;;11.00;10.00;;;21.90;96.10;;;;;;5031107;28;20034;-67
2022/08/14 05:25:53;;;;;;;11.63;10.43;;;22.00;95.80;;;;;;5031492;28;20033;-67
2022/08/14 05:28:25;;;;;;;12.85;11.18;;;22.20;95.50;;;;;;5031621;28;20520;-67
2022/08/14 05:30:54;;;;;;;14.25;11.77;;;22.20;95.10;;;;;;5031482;28;20120;-67
2022/08/14 05:33:23;;;;;;;13.07;11.48;;;22.40;94.70;;;;;;5031247;28;20029;-67
2022/08/14 05:35:50;;;;;;;12.75;11.07;;;22.50;94.40;;;;;;5031546;28;20075;-67
2022/08/14 05:38:20;;;;;;;11.43;9.80;;;22.60;94.00;;;;;;5031542;28;20037;-67
2022/08/14 05:40:47;;;;;;;12.98;9.95;;;22.70;93.70;;;;;;5013605;28;20042;-67
2022/08/14 05:43:14;;;;;;;11.68;10.32;;;22.80;93.40;;;;;;5031614;28;20053;-67
2022/08/14 05:45:41;;;;;;;16.10;10.73;;;22.90;93.10;;;;;;5031661;28;20041;-67
2022/08/14 05:48:07;;;;;;;13.98;10.45;;;23.10;92.80;;;;;;5031484;28;20076;-67
2022/08/14 05:50:33;;;;;;;14.15;11.30;;;23.20;92.50;;;;;;5031189;28;20140;-67
2022/08/14 05:52:59;;;;;;;16.30;11.73;;;23.30;92.30;;;;;;5031285;28;20037;-67
2022/08/14 05:55:25;;;;;;;12.40;11.10;;;23.50;92.10;;;;;;5031571;28;20026;-67
2022/08/14 05:58:00;;;;;;;16.05;11.60;;;23.60;91.70;;;;;;5031366;28;20046;-67
2022/08/14 06:00:38;;;;;;;13.63;11.10;;;23.60;91.30;;;;;;5031165;28;20052;-67
2022/08/14 06:03:10;;;;;;;11.90;10.18;;;23.70;91.20;;;;;;5031075;28;20529;-67
2022/08/14 06:05:36;;;;;;;13.23;11.75;;;23.90;91.20;;;;;;5031312;28;20037;-67
2022/08/14 06:08:02;;;;;;;17.05;11.55;;;24.00;90.80;;;;;;5031395;28;20041;-67
2022/08/14 06:10:29;;;;;;;16.48;12.13;;;24.10;90.50;;;;;;5031111;28;20041;-67
2022/08/14 06:13:00;;;;;;;14.45;11.55;;;24.20;90.50;;;;;;5031308;28;20048;-67
2022/08/14 06:15:26;;;;;;;12.75;11.30;;;24.30;90.00;;;;;;5031231;28;20511;-67
2022/08/14 06:17:54;;;;;;;16.40;12.13;;;24.50;89.80;;;;;;5031049;28;20048;-67
2022/08/14 06:20:20;;;;;;;16.98;10.68;;;24.70;89.40;;;;;;5013391;28;20522;-67
2022/08/14 06:22:46;;;;;;;14.32;11.25;;;24.70;88.00;;;;;;5031252;28;20037;-67
2022/08/14 06:25:14;;;;;;;19.25;11.43;;;24.70;87.30;;;;;;5031251;28;20060;-67
2022/08/14 06:27:43;;;;;;;15.57;10.65;;;25.00;87.10;;;;;;5031143;28;20376;-68
2022/08/14 06:30:11;;;;;;;12.75;11.30;;;25.10;86.30;;;;;;5030892;28;20045;-67
2022/08/14 06:32:37;;;;;;;11.68;10.27;;;25.20;85.50;;;;;;5030771;28;20056;-67
2022/08/14 06:35:05;;;;;;;14.45;11.07;;;25.20;85.50;;;;;;5031237;28;20491;-67
2022/08/14 06:37:50;;;;;;;15.35;10.25;;;25.20;84.80;;;;;;5031020;28;20041;-67
2022/08/14 06:40:18;;;;;;;14.75;11.65;;;25.40;84.20;;;;;;5032002;28;20045;-68
2022/08/14 06:42:44;;;;;;;15.70;11.30;;;25.40;84.00;;;;;;5034579;28;20069;-68
2022/08/14 06:45:11;;;;;;;15.35;10.70;;;25.40;83.80;;;;;;5034431;28;20041;-68
2022/08/14 06:47:39;;;;;;;14.65;10.73;;;25.40;83.70;;;;;;5034588;28;20037;-68
2022/08/14 06:50:07;;;;;;;13.52;10.85;;;25.60;83.40;;;;;;5016337;28;20441;-68
2022/08/14 06:52:33;;;;;;;16.00;10.27;;;25.80;82.80;;;;;;5034392;28;20042;-68
2022/08/14 06:54:59;;;;;;;10.95;9.50;;;25.80;82.40;;;;;;5034458;28;20045;-67
2022/08/14 06:57:25;;;;;;;14.40;10.98;;;25.80;82.50;;;;;;5034301;28;20037;-67
2022/08/14 06:59:50;;;;;;;12.90;11.43;;;26.00;82.20;;;;;;5034003;28;20049;-67
2022/08/14 07:07:46;;;;;;;13.38;9.68;;;26.20;80.30;;;;;;5034151;28;20136;-67
2022/08/14 07:10:11;;;;;;;12.35;10.13;;;26.30;80.10;;;;;;5033780;28;20115;-67
2022/08/14 07:12:37;;;;;;;13.07;10.32;;;26.40;79.60;;;;;;5016502;28;20450;-67
2022/08/14 07:15:05;;;;;;;10.73;9.25;;;26.60;79.40;;;;;;5034060;28;20072;-67
2022/08/14 07:17:30;;;;;;;10.15;9.15;;;26.80;78.50;;;;;;5034049;28;20049;-67
2022/08/14 07:19:56;;;;;;;12.05;9.13;;;26.80;78.20;;;;;;5032390;28;20045;-67
2022/08/14 07:22:21;;;;;;;11.77;9.50;;;26.80;77.50;;;;;;5033749;28;20052;-67
2022/08/14 07:24:47;;;;;;;11.05;8.35;;;26.70;76.60;;;;;;5033704;28;20099;-67
2022/08/14 07:27:13;;;;;;;9.60;8.60;;;26.90;76.90;;;;;;5033687;28;20087;-67
2022/08/14 07:29:38;;;;;;;11.00;8.48;;;27.10;76.80;;;;;;5038627;28;20037;-67
2022/08/14 07:32:04;;;;;;;9.40;8.48;;;27.40;76.20;;;;;;5033198;28;20541;-68
2022/08/14 07:34:30;;;;;;;8.38;7.57;;;27.60;75.40;;;;;;5033358;28;20030;-68
2022/08/14 07:36:55;;;;;;;9.45;7.82;;;27.60;74.70;;;;;;5044306;28;20458;-67
2022/08/14 07:39:21;;;;;;;8.60;7.72;;;27.90;73.50;;;;;;5032822;28;20044;-67
2022/08/14 07:41:47;;;;;;;10.77;8.23;;;27.90;72.70;;;;;;5033628;28;20041;-67
2022/08/14 07:44:12;;;;;;;10.32;7.95;;;27.90;72.50;;;;;;5033431;28;20044;-67
2022/08/14 07:46:39;;;;;;;8.20;6.53;;;27.90;71.70;;;;;;5033732;28;20049;-67
2022/08/14 07:49:06;;;;;;;8.95;8.05;;;28.10;71.20;;;;;;5033305;28;20037;-67
2022/08/14 07:51:32;;;;;;;10.13;7.32;;;28.20;70.60;;;;;;5033041;28;20049;-67
2022/08/14 07:53:58;;;;;;;8.55;7.63;;;28.40;70.70;;;;;;5034412;28;20095;-67
2022/08/14 07:56:23;;;;;;;7.40;6.57;;;28.60;70.50;;;;;;5049160;28;20037;-66
2022/08/14 07:58:49;;;;;;;9.07;7.25;;;28.90;69.50;;;;;;5032991;28;20118;-66
2022/08/14 08:01:17;;;;;;;8.20;7.15;;;28.90;68.20;;;;;;5032477;28;20461;-67
2022/08/14 08:03:45;;;;;;;7.63;6.75;;;28.80;67.60;;;;;;5032912;28;20041;-67
2022/08/14 08:06:11;;;;;;;8.13;7.30;;;28.80;67.20;;;;;;5032651;28;20406;-67
2022/08/14 08:08:37;;;;;;;11.32;7.03;;;28.50;66.80;;;;;;5032570;28;20033;-66
2022/08/14 08:11:05;;;;;;;7.68;6.97;;;28.80;67.10;;;;;;5032528;28;20107;-66
2022/08/14 08:13:33;;;;;;;9.02;7.28;;;28.90;66.80;;;;;;5032672;28;20034;-67
2022/08/14 08:15:58;;;;;;;7.93;6.18;;;29.10;66.40;;;;;;5032732;28;20450;-67
2022/08/14 08:18:25;;;;;;;9.15;6.63;;;29.10;65.90;;;;;;5032371;28;20037;-68
2022/08/14 08:20:53;;;;;;;8.95;6.43;;;29.00;65.60;;;;;;5032169;28;20069;-67
2022/08/14 08:23:21;;;;;;;8.05;6.72;;;29.10;65.40;;;;;;5032514;28;20458;-68
2022/08/14 08:25:49;;;;;;;8.55;5.95;;;29.10;65.00;;;;;;5032553;28;20065;-67
2022/08/14 08:28:23;;;;;;;7.40;6.60;;;29.30;64.80;;;;;;5032152;28;20044;-67
2022/08/14 08:30:55;;;;;;;7.53;6.15;;;29.50;64.10;;;;;;5032044;28;20080;-66
2022/08/14 08:33:23;;;;;;;7.45;6.47;;;29.50;63.60;;;;;;5031890;28;20507;-66
2022/08/14 08:35:50;;;;;;;6.55;5.82;;;29.30;62.90;;;;;;5032432;28;20053;-67
2022/08/14 08:38:22;;;;;;;7.25;6.05;;;29.40;62.80;;;;;;5032343;28;20120;-67
2022/08/14 08:40:50;;;;;;;7.75;5.68;;;29.40;63.20;;;;;;5031731;28;20479;-67
2022/08/14 08:43:23;;;;;;;6.53;5.80;;;29.30;62.50;;;;;;5014380;28;20037;-67
2022/08/14 08:45:59;;;;;;;6.53;5.95;;;29.50;62.20;;;;;;5031841;28;20037;-67
2022/08/14 08:48:28;;;;;;;7.68;6.40;;;29.40;61.90;;;;;;5032001;28;20395;-67
2022/08/14 08:50:58;;;;;;;7.47;5.85;;;29.60;61.70;;;;;;5031668;28;20077;-67
2022/08/14 08:53:35;;;;;;;7.30;5.95;;;29.50;61.40;;;;;;5031847;28;20044;-67
2022/08/14 08:56:02;;;;;;;6.43;5.82;;;29.70;60.80;;;;;;5031800;28;20399;-67
2022/08/14 08:58:28;;;;;;;6.63;5.60;;;29.60;60.90;;;;;;5031678;28;20042;-67
2022/08/14 09:00:56;;;;;;;7.40;6.25;;;29.60;61.00;;;;;;5031206;28;20475;-67
2022/08/14 09:03:26;;;;;;;6.72;6.00;;;29.60;60.20;;;;;;5031347;28;20048;-67
2022/08/14 09:06:04;;;;;;;7.38;5.72;;;29.70;60.60;;;;;;5031727;28;20045;-67
2022/08/14 09:08:34;;;;;;;6.75;6.05;;;29.70;60.80;;;;;;5031680;28;20037;-66
2022/08/14 09:11:08;;;;;;;6.47;5.88;;;29.70;60.40;;;;;;5031208;28;20128;-67
2022/08/14 09:13:34;;;;;;;7.30;5.78;;;29.90;60.00;;;;;;5031743;28;20125;-66
2022/08/14 09:16:01;;;;;;;6.75;6.15;;;30.10;60.00;;;;;;5030659;28;20049;-66
2022/08/14 09:18:27;;;;;;;7.63;6.50;;;30.10;59.40;;;;;;5031457;28;20068;-67
2022/08/14 09:20:55;;;;;;;8.88;6.45;;;30.30;59.80;;;;;;5013465;28;20521;-66
2022/08/14 09:23:20;;;;;;;7.35;5.13;;;30.00;59.30;;;;;;5030350;28;20048;-66
2022/08/14 09:25:48;;;;;;;6.20;5.68;;;30.10;59.40;;;;;;5031607;28;20042;-67
2022/08/14 09:28:16;;;;;;;6.68;5.60;;;30.30;59.50;;;;;;5031652;28;20041;-67
2022/08/14 09:30:46;;;;;;;8.13;6.55;;;30.40;59.90;;;;;;5031538;28;20083;-67
2022/08/14 09:33:32;;;;;;;6.38;5.80;;;30.50;59.40;;;;;;5097101;22;20567;-66
2022/08/14 09:36:44;;;;;;;6.88;6.28;;;30.10;58.90;;;;;;5092157;28;20036;-66
2022/08/14 09:39:23;;;;;;;6.68;6.05;;;30.10;58.80;;;;;;5028412;28;20420;-65
2022/08/14 09:42:00;;;;;;;7.43;6.15;;;30.10;58.80;;;;;;5029153;28;20045;-65
2022/08/14 09:44:42;;;;;;;11.07;5.97;;;30.30;58.50;;;;;;5058298;28;20055;-65
2022/08/14 09:47:09;;;;;;;8.95;6.05;;;30.10;58.30;;;;;;5071541;28;20040;-65
2022/08/14 09:49:37;;;;;;;6.25;5.25;;;30.40;59.20;;;;;;5071579;28;20032;-65
2022/08/14 09:52:12;;;;;;;6.57;5.10;;;30.20;57.70;;;;;;5071308;28;20563;-65
2022/08/14 09:54:41;;;;;;;9.35;5.68;;;30.20;58.00;;;;;;5071300;28;20086;-65
2022/08/14 09:57:22;;;;;;;7.28;5.88;;;30.10;57.80;;;;;;5071271;28;20086;-66
2022/08/14 09:59:48;;;;;;;5.93;5.38;;;30.10;57.60;;;;;;5071343;28;20385;-65
2022/08/14 10:02:30;;;;;;;8.98;5.78;;;30.10;57.70;;;;;;5082728;28;20078;-65
2022/08/14 10:05:09;;;;;;;6.32;5.45;;;30.10;57.50;;;;;;5058768;28;20067;-65
2022/08/14 10:07:49;;;;;;;6.47;4.57;;;29.90;56.60;;;;;;5071013;28;20033;-65
2022/08/14 10:10:27;;;;;;;13.82;5.68;;;30.00;57.40;;;;;;5070753;28;20038;-65
2022/08/14 10:12:54;;;;;;;10.75;5.18;;;29.80;55.90;;;;;;5067204;28;20064;-64
2022/08/14 10:15:21;;;;;;;5.82;4.97;;;29.80;57.30;;;;;;5072048;28;20506;-65
2022/08/14 10:17:48;;;;;;;7.28;5.45;;;29.80;57.10;;;;;;5074748;28;20490;-65
2022/08/14 10:20:21;;;;;;;5.70;5.18;;;29.80;57.10;;;;;;5074379;28;20086;-64
2022/08/14 10:22:48;;;;;;;5.32;4.75;;;29.70;57.50;;;;;;5074627;28;20033;-65
2022/08/14 10:25:16;;;;;;;6.72;5.07;;;29.70;56.90;;;;;;5074651;28;20040;-65
2022/08/14 10:27:45;;;;;;;5.97;5.45;;;29.70;57.00;;;;;;5074492;28;20673;-64
2022/08/14 10:30:21;;;;;;;6.15;5.18;;;29.70;57.30;;;;;;5074228;28;20060;-65
2022/08/14 10:32:47;;;;;;;6.53;4.88;;;29.60;57.40;;;;;;5074062;28;20490;-66
2022/08/14 10:35:14;;;;;;;8.98;6.10;;;29.70;58.00;;;;;;5074638;28;20068;-66
2022/08/14 10:37:48;;;;;;;8.70;5.82;;;29.80;58.10;;;;;;5074512;28;20040;-65
2022/08/14 10:40:28;;;;;;;6.57;5.97;;;29.80;57.80;;;;;;5074075;28;20044;-67
2022/08/14 10:42:55;;;;;;;6.95;5.57;;;29.70;57.70;;;;;;5074208;28;20037;-65
2022/08/14 10:45:30;;;;;;;7.90;5.40;;;29.60;58.00;;;;;;5074357;28;20087;-64
2022/08/14 10:47:57;;;;;;;6.57;5.18;;;29.70;58.00;;;;;;5074108;28;20040;-65
2022/08/14 10:50:35;;;;;;;6.72;5.57;;;29.90;57.90;;;;;;5073958;28;20029;-64
2022/08/14 10:53:04;;;;;;;5.95;5.32;;;29.80;57.10;;;;;;5073715;28;20093;-64
2022/08/14 10:55:38;;;;;;;6.05;5.55;;;29.70;57.30;;;;;;5074403;28;20032;-64
2022/08/14 10:58:10;;;;;;;7.32;5.45;;;29.60;57.80;;;;;;5074155;28;20040;-64
2022/08/14 11:00:38;;;;;;;8.60;5.80;;;29.80;57.30;;;;;;5073868;28;20071;-64
2022/08/14 11:03:08;;;;;;;7.95;5.50;;;29.80;57.00;;;;;;5073790;28;20093;-65
2022/08/14 11:05:50;;;;;;;6.75;6.05;;;30.10;57.10;;;;;;5065048;28;20445;-65
2022/08/14 11:08:18;;;;;;;;;;;29.80;56.10;;;;;;5087139;28;20078;-65
2022/08/14 11:10:58;;;;;;;6.90;5.95;;;29.40;56.30;;;;;;5073658;28;19916;-65
2022/08/14 11:13:26;;;;;;;7.47;6.03;;;29.50;56.90;;;;;;5073677;28;20090;-65
2022/08/14 11:15:55;;;;;;;7.22;5.43;;;29.60;57.40;;;;;;5073645;28;20428;-65
2022/08/14 11:18:21;;;;;;;6.63;5.88;;;29.60;57.10;;;;;;5074067;28;20040;-65
2022/08/14 11:20:54;;;;;;;5.93;5.40;;;29.80;57.20;;;;;;5073679;28;20064;-65
2022/08/14 11:23:29;;;;;;;6.22;5.60;;;29.70;55.80;;;;;;5073615;28;20047;-65
2022/08/14 11:25:56;;;;;;;8.23;6.28;;;29.80;55.60;;;;;;5073290;28;20116;-65
2022/08/14 11:28:25;;;;;;;7.57;5.50;;;29.70;56.00;;;;;;5073340;28;20072;-65
2022/08/14 11:30:55;;;;;;;13.35;6.50;;;29.70;56.20;;;;;;5073388;28;20089;-65
2022/08/14 11:33:23;;;;;;;11.63;6.72;;;29.90;56.20;;;;;;5073319;28;20040;-65
2022/08/14 11:35:49;;;;;;;8.10;6.00;;;30.00;55.80;;;;;;5089033;28;20122;-65
2022/08/14 11:38:16;;;;;;;7.97;5.75;;;30.10;55.50;;;;;;5072519;28;20083;-66
2022/08/14 11:40:44;;;;;;;8.68;5.60;;;30.00;55.20;;;;;;5066808;28;20033;-65
2022/08/14 11:43:09;;;;;;;6.60;5.90;;;30.30;55.20;;;;;;5073086;28;20039;-65
2022/08/14 11:45:36;;;;;;;8.95;5.47;;;30.10;54.50;;;;;;5073494;28;20040;-65
2022/08/14 11:48:22;;;;;;;5.97;5.40;;;30.10;54.50;;;;;;5073259;28;20040;-66
2022/08/14 11:50:49;;;;;;;6.38;5.45;;;30.00;54.50;;;;;;5072964;28;20033;-66
2022/08/14 11:53:25;;;;;;;6.72;5.95;;;30.20;55.20;;;;;;5073064;28;20573;-65
2022/08/14 11:56:01;;;;;;;7.50;5.80;;;30.10;54.40;;;;;;5073334;28;20047;-66
2022/08/14 11:58:32;;;;;;;6.72;5.63;;;30.00;54.30;;;;;;5073278;28;20457;-65
2022/08/14 12:01:01;;;;;;;8.02;6.13;;;30.00;54.60;;;;;;5072836;28;20541;-66
2022/08/14 12:03:38;;;;;;;10.45;5.65;;;30.00;54.60;;;;;;5072983;28;20047;-65
2022/08/14 12:06:09;;;;;;;8.13;5.97;;;30.00;53.60;;;;;;5072901;28;20033;-66
2022/08/14 12:08:36;;;;;;;6.78;5.50;;;30.10;53.90;;;;;;5073009;28;20166;-65
2022/08/14 12:11:04;;;;;;;8.88;5.60;;;30.00;54.10;;;;;;5072632;28;20032;-65
2022/08/14 12:13:31;;;;;;;7.22;6.20;;;30.00;54.20;;;;;;5072777;28;20045;-65
2022/08/14 12:16:02;;;;;;;7.03;5.60;;;30.00;53.80;;;;;;5072765;28;20036;-65
2022/08/14 12:18:33;;;;;;;7.88;5.40;;;30.00;53.90;;;;;;5072663;28;20532;-65
2022/08/14 12:21:18;;;;;;;6.90;5.82;;;30.00;54.00;;;;;;5072617;28;20041;-65
2022/08/14 12:24:00;;;;;;;5.68;5.00;;;30.00;53.40;;;;;;5072582;28;20036;-66
2022/08/14 12:26:26;;;;;;;6.00;5.40;;;30.10;53.10;;;;;;5072598;28;20502;-65
2022/08/14 12:29:08;;;;;;;5.90;5.40;;;30.10;53.30;;;;;;5072313;28;20723;-66
2022/08/14 12:31:34;;;;;;;7.43;5.65;;;30.20;53.30;;;;;;5072228;28;20085;-65
2022/08/14 12:34:03;;;;;;;5.75;4.93;;;30.30;53.70;;;;;;5072568;28;20076;-65
2022/08/14 12:36:30;;;;;;;10.48;5.85;;;30.30;53.40;;;;;;5072499;28;20075;-66
2022/08/14 12:38:56;;;;;;;7.60;5.65;;;30.30;53.40;;;;;;5068898;28;20045;-65
2022/08/14 12:41:24;;;;;;;7.13;6.43;;;30.40;53.20;;;;;;5062508;28;20082;-65
2022/08/14 12:43:55;;;;;;;7.03;5.45;;;30.60;53.40;;;;;;5061433;28;20128;-65
2022/08/14 12:46:25;;;;;;;7.80;5.80;;;30.60;52.50;;;;;;5052221;28;20041;-65
2022/08/14 12:48:53;;;;;;;14.90;6.45;;;30.60;52.70;;;;;;5052112;28;20053;-65
2022/08/14 12:51:24;;;;;;;9.13;6.80;;;30.60;52.20;;;;;;5051974;28;20047;-65
2022/08/14 12:53:52;;;;;;;11.32;6.53;;;30.60;52.20;;;;;;5051996;28;20367;-65
2022/08/14 12:56:19;;;;;;;12.75;6.53;;;30.70;52.80;;;;;;5052223;28;20120;-65
2022/08/14 12:58:57;;;;;;;6.63;5.93;;;30.80;52.60;;;;;;5067738;28;20040;-65
2022/08/14 13:01:26;;;;;;;9.65;6.63;;;30.90;53.20;;;;;;5051873;28;20098;-65
2022/08/14 13:04:11;;;;;;;11.07;6.60;;;31.10;52.80;;;;;;5051809;28;20495;-65
2022/08/14 13:06:40;;;;;;;7.30;6.10;;;31.10;52.00;;;;;;5051932;28;20075;-65
2022/08/14 13:09:08;;;;;;;8.65;6.75;;;30.90;51.70;;;;;;5051800;28;20071;-65